createdAt,value
2022-12-28T00:01:11.069Z,18.38
2022-12-28T00:03:12.836Z,17.80
2022-12-28T00:05:14.690Z,14.60
2022-12-28T00:07:16.683Z,15.65
2022-12-28T00:09:18.707Z,19.35
2022-12-28T00:11:30.999Z,16.70
2022-12-28T00:13:33.653Z,17.63
2022-12-28T00:15:37.613Z,14.95
2022-12-28T00:17:39.362Z,20.05
2022-12-28T00:19:41.096Z,14.13
2022-12-28T00:21:44.359Z,17.40
2022-12-28T00:23:50.263Z,23.55
2022-12-28T00:25:52.666Z,20.45
2022-12-28T00:27:54.410Z,20.08
2022-12-28T00:29:56.109Z,22.98
2022-12-28T00:31:57.900Z,21.88
2022-12-28T00:33:59.637Z,19.15
2022-12-28T00:36:02.611Z,20.77
2022-12-28T00:38:04.390Z,20.08
2022-12-28T00:40:06.830Z,23.77
2022-12-28T00:42:08.924Z,19.90
2022-12-28T00:44:10.929Z,24.95
2022-12-28T00:46:13.028Z,19.05
2022-12-28T00:48:16.247Z,19.38
2022-12-28T00:50:18.073Z,20.67
2022-12-28T00:52:19.778Z,19.88
2022-12-28T00:54:21.491Z,23.58
2022-12-28T00:56:23.587Z,18.60
2022-12-28T00:58:25.297Z,19.55
2022-12-28T01:00:27.845Z,28.00
2022-12-28T01:02:29.596Z,23.65
2022-12-28T01:04:31.384Z,24.33
2022-12-28T01:06:33.171Z,21.35
2022-12-28T01:08:39.065Z,23.27
2022-12-28T01:10:41.488Z,26.55
2022-12-28T01:12:43.369Z,21.48
2022-12-28T01:14:45.365Z,19.38
2022-12-28T01:16:47.189Z,23.90
2022-12-28T01:18:53.473Z,22.50
2022-12-28T01:20:55.492Z,22.00
2022-12-28T01:22:57.184Z,23.38
2022-12-28T01:24:58.889Z,24.15
2022-12-28T01:27:00.878Z,21.63
2022-12-28T01:29:02.647Z,25.60
2022-12-28T01:31:12.938Z,24.98
2022-12-28T01:33:14.644Z,24.45
2022-12-28T01:35:17.944Z,23.60
2022-12-28T01:37:20.464Z,25.40
2022-12-28T01:39:22.333Z,27.05
2022-12-28T01:41:25.200Z,24.83
2022-12-28T01:43:41.512Z,23.92
2022-12-28T01:45:48.482Z,26.13
2022-12-28T01:47:54.392Z,28.42
2022-12-28T01:50:13.657Z,29.42
2022-12-28T01:52:44.659Z,20.83
2022-12-28T01:54:51.538Z,26.90
2022-12-28T01:56:53.803Z,36.78
2022-12-28T01:58:57.566Z,28.92
2022-12-28T02:00:59.699Z,28.50
2022-12-28T02:03:08.078Z,23.70
2022-12-28T02:05:10.112Z,24.15
2022-12-28T02:07:16.693Z,29.98
2022-12-28T02:09:28.102Z,25.90
2022-12-28T02:11:30.188Z,22.73
2022-12-28T02:13:32.111Z,25.05
2022-12-28T02:15:33.893Z,27.67
2022-12-28T02:17:35.747Z,31.30
2022-12-28T02:19:46.321Z,29.00
2022-12-28T02:22:00.127Z,28.45
2022-12-28T02:24:02.196Z,22.60
2022-12-28T02:26:28.271Z,31.90
2022-12-28T02:29:00.990Z,24.35
2022-12-28T02:31:12.113Z,26.02
2022-12-28T02:33:40.134Z,33.83
2022-12-28T02:36:14.555Z,24.92
2022-12-28T02:38:28.516Z,28.27
2022-12-28T02:40:43.871Z,31.77
2022-12-28T02:42:47.133Z,34.45
2022-12-28T02:44:48.846Z,29.35
2022-12-28T02:46:50.570Z,29.33
2022-12-28T02:48:52.244Z,25.52
2022-12-28T02:51:23.861Z,27.17
2022-12-28T02:54:10.166Z,25.40
2022-12-28T02:56:33.941Z,26.40
2022-12-28T02:58:44.727Z,27.85
2022-12-28T03:00:54.490Z,31.20
2022-12-28T03:03:15.720Z,28.38
2022-12-28T03:05:46.884Z,27.23
2022-12-28T03:08:01.136Z,28.17
2022-12-28T03:10:23.590Z,28.98
2022-12-28T03:13:00.410Z,29.42
2022-12-28T03:15:08.411Z,33.78
2022-12-28T03:17:12.867Z,28.20
2022-12-28T03:19:14.678Z,30.20
2022-12-28T03:21:17.119Z,32.67
2022-12-28T03:23:23.598Z,30.65
2022-12-28T03:25:30.678Z,30.45
2022-12-28T03:27:34.520Z,24.95
2022-12-28T03:29:43.173Z,32.78
2022-12-28T03:31:45.100Z,32.22
2022-12-28T03:33:53.089Z,31.20
2022-12-28T03:36:25.315Z,27.52
2022-12-28T03:38:37.895Z,28.52
2022-12-28T03:40:49.149Z,26.45
2022-12-28T03:42:54.688Z,28.30
2022-12-28T03:45:05.330Z,31.60
2022-12-28T03:47:13.935Z,30.45
2022-12-28T03:49:16.068Z,33.10
2022-12-28T03:51:22.914Z,37.38
2022-12-28T03:53:31.734Z,31.80
2022-12-28T03:55:33.563Z,30.88
2022-12-28T03:57:35.326Z,29.60
2022-12-28T03:59:37.395Z,27.98
2022-12-28T04:01:39.278Z,29.92
2022-12-28T04:03:41.610Z,28.38
2022-12-28T04:05:43.322Z,31.75
2022-12-28T04:07:45.103Z,33.95
2022-12-28T04:09:46.917Z,30.58
2022-12-28T04:11:48.850Z,28.95
2022-12-28T04:13:50.801Z,29.38
2022-12-28T04:16:00.242Z,31.75
2022-12-28T04:18:02.221Z,34.40
2022-12-28T04:20:05.272Z,38.85
2022-12-28T04:22:07.171Z,35.92
2022-12-28T04:24:08.922Z,26.63
2022-12-28T04:26:13.522Z,29.25
2022-12-28T04:28:15.513Z,31.85
2022-12-28T04:30:17.264Z,28.85
2022-12-28T04:32:19.032Z,29.00
2022-12-28T04:34:20.772Z,34.83
2022-12-28T04:36:22.488Z,29.52
2022-12-28T04:38:24.224Z,30.17
2022-12-28T04:40:26.165Z,28.50
2022-12-28T04:42:27.857Z,33.08
2022-12-28T04:44:29.560Z,32.63
2022-12-28T04:46:31.515Z,35.20
2022-12-28T04:48:34.371Z,30.00
2022-12-28T04:50:36.885Z,33.53
2022-12-28T04:52:38.792Z,29.42
2022-12-28T04:54:40.474Z,32.17
2022-12-28T04:56:42.217Z,36.42
2022-12-28T04:58:44.460Z,33.97
2022-12-28T05:00:46.260Z,43.90
2022-12-28T05:02:48.011Z,51.88
2022-12-28T05:04:49.860Z,32.78
2022-12-28T05:06:51.585Z,28.48
2022-12-28T05:08:53.532Z,84.65
2022-12-28T05:10:59.118Z,53.70
2022-12-28T05:13:00.941Z,44.38
2022-12-28T05:15:02.620Z,38.15
2022-12-28T05:17:04.835Z,40.95
2022-12-28T05:19:06.548Z,29.13
2022-12-28T05:21:17.545Z,31.92
2022-12-28T05:23:19.381Z,29.08
2022-12-28T05:25:25.324Z,27.60
2022-12-28T05:27:30.060Z,34.97
2022-12-28T05:29:31.903Z,38.58
2022-12-28T05:31:35.297Z,33.15
2022-12-28T05:33:37.471Z,34.63
2022-12-28T05:35:40.714Z,33.65
2022-12-28T05:37:42.423Z,29.25
2022-12-28T05:39:44.250Z,32.13
2022-12-28T05:41:46.146Z,31.98
2022-12-28T05:43:48.520Z,26.13
2022-12-28T05:45:50.234Z,26.20
2022-12-28T05:47:52.509Z,25.52
2022-12-28T05:49:54.205Z,28.35
2022-12-28T05:51:55.956Z,29.25
2022-12-28T05:53:59.736Z,274.48
2022-12-28T05:56:14.746Z,30.92
2022-12-28T05:58:16.710Z,23.42
2022-12-28T06:00:18.613Z,52.70
2022-12-28T06:02:24.495Z,35.05
2022-12-28T06:04:26.651Z,89.97
2022-12-28T06:06:29.227Z,71.30
2022-12-28T06:08:30.887Z,47.92
2022-12-28T06:10:33.452Z,36.35
2022-12-28T06:12:35.242Z,28.98
2022-12-28T06:14:36.953Z,34.03
2022-12-28T06:16:41.381Z,26.75
2022-12-28T06:18:44.493Z,33.97
2022-12-28T06:20:46.209Z,24.00
2022-12-28T06:22:47.896Z,20.83
2022-12-28T06:24:49.811Z,23.52
2022-12-28T06:26:51.487Z,22.23
2022-12-28T06:28:53.332Z,21.00
2022-12-28T06:31:06.524Z,21.60
2022-12-28T06:33:08.395Z,26.05
2022-12-28T06:35:10.073Z,32.38
2022-12-28T06:37:11.841Z,22.00
2022-12-28T06:39:14.440Z,24.20
2022-12-28T06:41:17.690Z,25.58
2022-12-28T06:43:19.553Z,41.53
2022-12-28T06:45:21.275Z,26.30
2022-12-28T06:47:23.024Z,22.95
2022-12-28T06:49:25.088Z,26.17
2022-12-28T06:51:32.302Z,21.30
2022-12-28T06:53:36.750Z,21.33
2022-12-28T06:55:38.866Z,26.75
2022-12-28T06:57:40.567Z,22.67
2022-12-28T06:59:42.253Z,23.38
2022-12-28T07:01:44.306Z,21.58
2022-12-28T07:03:48.505Z,27.30
2022-12-28T07:05:51.307Z,27.10
2022-12-28T07:07:53.349Z,22.30
2022-12-28T07:09:55.051Z,22.92
2022-12-28T07:11:56.812Z,22.42
2022-12-28T07:13:58.610Z,20.45
2022-12-28T07:16:10.407Z,25.48
2022-12-28T07:18:12.532Z,22.67
2022-12-28T07:20:14.361Z,19.38
2022-12-28T07:22:16.039Z,18.10
2022-12-28T07:24:17.778Z,18.95
2022-12-28T07:26:22.617Z,19.98
2022-12-28T07:28:25.222Z,18.42
2022-12-28T07:30:27.182Z,16.65
2022-12-28T07:32:29.188Z,19.13
2022-12-28T07:34:31.260Z,20.98
2022-12-28T07:36:33.343Z,20.25
2022-12-28T07:38:36.207Z,18.42
2022-12-28T07:40:38.013Z,23.98
2022-12-28T07:42:39.688Z,22.10
2022-12-28T07:44:48.635Z,21.20
2022-12-28T07:46:50.844Z,20.20
2022-12-28T07:48:53.539Z,17.92
2022-12-28T07:50:55.354Z,19.57
2022-12-28T07:52:57.197Z,24.30
2022-12-28T07:54:58.904Z,20.33
2022-12-28T07:57:00.807Z,19.70
2022-12-28T07:59:06.354Z,23.83
2022-12-28T08:01:15.009Z,19.67
2022-12-28T08:03:20.495Z,17.85
2022-12-28T08:05:22.285Z,19.38
2022-12-28T08:07:24.364Z,21.30
2022-12-28T08:09:26.345Z,20.83
2022-12-28T08:11:30.849Z,18.77
2022-12-28T08:13:34.817Z,16.10
2022-12-28T08:15:36.907Z,19.65
2022-12-28T08:17:38.720Z,17.20
2022-12-28T08:19:41.640Z,20.90
2022-12-28T08:21:45.163Z,21.08
2022-12-28T08:23:48.197Z,16.83
2022-12-28T08:25:49.946Z,15.68
2022-12-28T08:27:51.973Z,17.30
2022-12-28T08:29:53.661Z,17.83
2022-12-28T08:31:55.343Z,14.75
2022-12-28T08:34:00.556Z,16.92
2022-12-28T08:36:03.107Z,15.15
2022-12-28T08:38:04.942Z,17.80
2022-12-28T08:40:07.240Z,15.45
2022-12-28T08:42:09.002Z,18.73
2022-12-28T08:44:11.055Z,18.35
2022-12-28T08:46:15.854Z,12.95
2022-12-28T08:48:17.763Z,15.77
2022-12-28T08:50:20.168Z,16.17
2022-12-28T08:52:23.059Z,16.17
2022-12-28T08:54:24.772Z,15.27
2022-12-28T08:56:29.381Z,18.00
2022-12-28T08:58:33.406Z,18.30
2022-12-28T09:00:35.304Z,18.48
2022-12-28T09:02:37.296Z,15.95
2022-12-28T09:04:39.268Z,22.55
2022-12-28T09:06:41.460Z,21.77
2022-12-28T09:08:51.406Z,18.38
2022-12-28T09:11:11.182Z,18.98
2022-12-28T09:13:13.034Z,17.77
2022-12-28T09:15:14.884Z,18.92
2022-12-28T09:17:16.804Z,18.42
2022-12-28T09:19:18.649Z,16.02
2022-12-28T09:21:22.169Z,16.42
2022-12-28T09:23:24.766Z,17.60
2022-12-28T09:25:26.502Z,21.35
2022-12-28T09:27:28.229Z,25.20
2022-12-28T09:29:30.217Z,22.92
2022-12-28T09:31:33.612Z,17.88
2022-12-28T09:33:57.401Z,20.42
2022-12-28T09:35:59.248Z,17.52
2022-12-28T09:38:01.259Z,15.40
2022-12-28T09:40:03.455Z,17.27
2022-12-28T09:42:15.396Z,22.05
2022-12-28T09:44:40.211Z,17.55
2022-12-28T09:47:11.178Z,14.95
2022-12-28T09:49:16.833Z,21.00
2022-12-28T09:51:21.047Z,15.93
2022-12-28T09:53:31.795Z,21.02
2022-12-28T09:55:36.098Z,18.83
2022-12-28T09:57:42.335Z,16.40
2022-12-28T09:59:46.825Z,15.75
2022-12-28T10:02:01.018Z,13.68
2022-12-28T10:04:04.525Z,15.38
2022-12-28T10:06:13.289Z,12.00
2022-12-28T10:08:17.385Z,15.88
2022-12-28T10:10:22.449Z,15.60
2022-12-28T10:12:24.435Z,14.15
2022-12-28T10:14:29.360Z,13.95
2022-12-28T10:16:33.079Z,21.05
2022-12-28T10:18:39.361Z,18.02
2022-12-28T10:20:43.870Z,15.88
2022-12-28T10:22:51.009Z,16.30
2022-12-28T10:24:54.297Z,16.77
2022-12-28T10:27:01.507Z,14.75
2022-12-28T10:29:03.292Z,19.25
2022-12-28T10:31:12.633Z,18.88
2022-12-28T10:33:19.903Z,19.55
2022-12-28T10:35:26.082Z,18.42
2022-12-28T10:37:31.397Z,21.15
2022-12-28T10:39:34.101Z,14.60
2022-12-28T10:41:39.204Z,15.40
2022-12-28T10:43:44.491Z,19.95
2022-12-28T10:45:49.980Z,19.25
2022-12-28T10:47:56.677Z,16.38
2022-12-28T10:52:21.597Z,16.05
2022-12-28T10:54:28.239Z,19.33
2022-12-28T10:56:44.510Z,20.67
2022-12-28T10:58:48.704Z,18.50
2022-12-28T11:01:01.844Z,23.30
2022-12-28T11:03:18.378Z,19.77
2022-12-28T11:05:24.903Z,15.98
2022-12-28T11:07:31.519Z,18.58
2022-12-28T11:09:35.976Z,13.82
2022-12-28T11:11:37.834Z,18.52
2022-12-28T11:13:40.354Z,14.82
2022-12-28T11:15:42.529Z,12.98
2022-12-28T11:17:49.906Z,16.75
2022-12-28T11:19:56.139Z,18.60
2022-12-28T11:21:57.949Z,16.15
2022-12-28T11:23:59.845Z,13.52
2022-12-28T11:26:01.811Z,12.88
2022-12-28T11:28:14.464Z,15.65
2022-12-28T11:30:18.444Z,20.55
2022-12-28T11:32:25.940Z,22.00
2022-12-28T11:34:29.649Z,19.95
2022-12-28T11:39:20.108Z,16.95
2022-12-28T11:41:33.416Z,15.48
2022-12-28T11:43:37.851Z,12.77
2022-12-28T11:45:58.817Z,16.60
2022-12-28T11:48:38.886Z,13.45
2022-12-28T11:50:42.085Z,15.52
2022-12-28T11:52:46.210Z,15.52
2022-12-28T11:55:02.343Z,33.65
2022-12-28T11:57:04.938Z,18.20
2022-12-28T11:59:20.007Z,18.50
2022-12-28T12:01:28.056Z,17.83
2022-12-28T12:03:57.682Z,14.27
2022-12-28T12:05:59.496Z,14.75
2022-12-28T12:08:02.110Z,18.92
2022-12-28T12:10:29.612Z,14.57
2022-12-28T12:12:31.347Z,15.40
2022-12-28T12:14:52.862Z,19.90
2022-12-28T12:17:02.099Z,17.52
2022-12-28T12:19:05.133Z,17.30
2022-12-28T12:21:13.549Z,18.58
2022-12-28T12:23:36.460Z,13.57
2022-12-28T12:25:42.766Z,14.82
2022-12-28T12:28:02.360Z,16.02
2022-12-28T12:30:15.441Z,18.50
2022-12-28T12:32:32.573Z,12.18
2022-12-28T12:34:49.891Z,15.98
2022-12-28T12:37:23.930Z,16.27
2022-12-28T12:39:28.688Z,14.65
2022-12-28T12:42:02.895Z,13.88
2022-12-28T12:44:21.433Z,20.08
2022-12-28T12:46:50.420Z,15.63
2022-12-28T12:49:27.644Z,13.75
2022-12-28T12:51:55.405Z,16.17
2022-12-28T12:54:15.548Z,18.52
2022-12-28T12:56:38.691Z,15.27
2022-12-28T12:59:05.920Z,18.35
2022-12-28T13:01:20.344Z,15.60
2022-12-28T13:03:40.883Z,19.00
2022-12-28T13:05:49.657Z,15.55
2022-12-28T13:07:51.543Z,13.45
2022-12-28T13:09:57.930Z,17.25
2022-12-28T13:12:01.913Z,24.77
2022-12-28T13:14:04.467Z,25.98
2022-12-28T13:16:11.904Z,15.43
2022-12-28T13:18:44.056Z,15.55
2022-12-28T13:20:40.931Z,16.23
2022-12-28T13:22:45.438Z,12.43
2022-12-28T13:24:47.396Z,16.27
2022-12-28T13:26:49.724Z,14.63
2022-12-28T13:29:00.581Z,20.58
2022-12-28T13:31:10.197Z,15.15
2022-12-28T13:33:22.720Z,12.98
2022-12-28T13:35:30.814Z,11.68
2022-12-28T13:37:32.631Z,12.70
2022-12-28T13:39:41.575Z,13.80
2022-12-28T13:41:58.802Z,11.80
2022-12-28T13:44:33.474Z,11.45
2022-12-28T13:46:38.591Z,13.77
2022-12-28T13:48:44.666Z,13.13
2022-12-28T13:50:46.691Z,13.43
2022-12-28T13:52:55.493Z,16.70
2022-12-28T13:55:02.165Z,16.40
2022-12-28T13:57:36.614Z,13.65
2022-12-28T13:59:27.798Z,18.83
2022-12-28T14:01:39.891Z,17.83
2022-12-28T14:03:46.310Z,12.70
2022-12-28T14:05:54.540Z,12.05
2022-12-28T14:07:58.741Z,20.52
2022-12-28T14:10:00.833Z,16.38
2022-12-28T14:12:03.325Z,18.65
2022-12-28T14:14:05.784Z,20.30
2022-12-28T14:16:08.855Z,15.85
2022-12-28T14:18:15.768Z,14.38
2022-12-28T14:20:17.781Z,14.52
2022-12-28T14:22:28.741Z,12.43
2022-12-28T14:24:30.965Z,13.98
2022-12-28T14:26:33.392Z,12.82
2022-12-28T14:28:45.122Z,14.93
2022-12-28T14:30:52.925Z,14.20
2022-12-28T14:32:55.903Z,22.52
2022-12-28T14:34:59.415Z,16.15
2022-12-28T14:37:01.788Z,22.92
2022-12-28T14:39:05.327Z,36.15
2022-12-28T14:41:21.327Z,20.02
2022-12-28T14:43:26.421Z,17.20
2022-12-28T14:46:07.381Z,13.02
2022-12-28T14:48:22.446Z,12.23
2022-12-28T14:50:29.818Z,14.52
2022-12-28T14:52:36.780Z,11.63
2022-12-28T14:54:49.901Z,14.95
2022-12-28T14:57:05.159Z,13.80
2022-12-28T14:59:21.050Z,17.02
2022-12-28T15:01:24.175Z,14.18
2022-12-28T15:03:26.775Z,13.75
2022-12-28T15:05:37.729Z,13.20
2022-12-28T15:07:39.421Z,16.10
2022-12-28T15:09:41.283Z,15.75
2022-12-28T15:11:43.114Z,13.73
2022-12-28T15:13:44.983Z,15.70
2022-12-28T15:15:57.463Z,14.95
2022-12-28T15:17:59.202Z,14.77
2022-12-28T15:20:00.930Z,12.98
2022-12-28T15:22:02.956Z,13.73
2022-12-28T15:24:05.040Z,12.68
2022-12-28T15:26:11.701Z,13.10
2022-12-28T15:28:13.708Z,19.13
2022-12-28T15:30:21.637Z,13.50
2022-12-28T15:32:24.687Z,16.73
2022-12-28T15:34:26.459Z,14.00
2022-12-28T15:36:28.209Z,23.45
2022-12-28T15:38:30.046Z,21.15
2022-12-28T15:40:31.835Z,15.68
2022-12-28T15:42:40.069Z,16.27
2022-12-28T15:44:48.197Z,13.50
2022-12-28T15:46:50.205Z,14.82
2022-12-28T15:48:51.986Z,14.00
2022-12-28T15:50:53.936Z,12.95
2022-12-28T15:52:55.769Z,17.55
2022-12-28T15:54:57.762Z,13.82
2022-12-28T15:56:59.438Z,15.55
2022-12-28T15:59:03.368Z,17.58
2022-12-28T16:01:05.350Z,14.93
2022-12-28T16:03:07.146Z,16.63
2022-12-28T16:05:09.155Z,17.90
2022-12-28T16:07:10.924Z,14.45
2022-12-28T16:09:14.053Z,14.32
2022-12-28T16:11:18.177Z,14.75
2022-12-28T16:13:19.840Z,14.95
2022-12-28T16:15:21.660Z,13.25
2022-12-28T16:17:23.378Z,12.35
2022-12-28T16:19:25.109Z,15.73
2022-12-28T16:21:27.122Z,14.20
2022-12-28T16:23:37.703Z,28.55
2022-12-28T16:25:39.432Z,29.98
2022-12-28T16:27:41.411Z,13.85
2022-12-28T16:29:43.344Z,14.85
2022-12-28T16:31:45.144Z,30.50
2022-12-28T16:33:47.141Z,21.80
2022-12-28T16:35:53.007Z,61.72
2022-12-28T16:37:57.671Z,16.67
2022-12-28T16:39:59.412Z,47.03
2022-12-28T16:42:01.132Z,51.25
2022-12-28T16:44:06.546Z,101.72
2022-12-28T16:46:09.501Z,30.60
2022-12-28T16:48:14.443Z,14.07
2022-12-28T16:50:18.847Z,20.50
2022-12-28T16:52:20.517Z,32.60
2022-12-28T16:54:24.239Z,36.13
2022-12-28T16:56:25.965Z,40.92
2022-12-28T16:58:28.990Z,23.17
2022-12-28T17:00:31.220Z,18.75
2022-12-28T17:02:33.095Z,19.25
2022-12-28T17:04:35.135Z,44.65
2022-12-28T17:06:36.938Z,19.92
2022-12-28T17:08:38.609Z,45.70
2022-12-28T17:10:43.648Z,42.40
2022-12-28T17:12:45.326Z,45.45
2022-12-28T17:14:47.026Z,23.65
2022-12-28T17:16:48.952Z,20.90
2022-12-28T17:18:51.206Z,65.95
2022-12-28T17:20:52.925Z,324.77
2022-12-28T17:22:54.621Z,334.35
2022-12-28T17:24:57.045Z,59.72
2022-12-28T17:27:05.169Z,34.15
2022-12-28T17:29:09.433Z,64.47
2022-12-28T17:31:14.162Z,39.28
2022-12-28T17:33:16.189Z,121.68
2022-12-28T17:35:17.959Z,389.70
2022-12-28T17:37:19.709Z,737.58
2022-12-28T17:39:21.596Z,391.33
2022-12-28T17:41:26.518Z,153.07
2022-12-28T17:43:28.241Z,104.45
2022-12-28T17:45:29.945Z,209.13
2022-12-28T17:47:31.673Z,178.10
2022-12-28T17:49:33.507Z,48.17
2022-12-28T17:51:35.220Z,300.33
2022-12-28T17:53:37.420Z,84.18
2022-12-28T17:55:39.104Z,43.47
2022-12-28T17:57:40.783Z,18.70
2022-12-28T17:59:42.886Z,29.42
2022-12-28T18:01:44.687Z,33.60
2022-12-28T18:03:46.523Z,33.75
2022-12-28T18:05:49.323Z,137.98
2022-12-28T18:07:50.997Z,18.38
2022-12-28T18:09:52.673Z,148.65
2022-12-28T18:11:54.654Z,49.65
2022-12-28T18:13:56.350Z,40.50
2022-12-28T18:15:58.057Z,33.67
2022-12-28T18:18:00.646Z,215.60
2022-12-28T18:20:02.340Z,92.13
2022-12-28T18:22:04.083Z,102.25
2022-12-28T18:24:05.935Z,24.63
2022-12-28T18:26:14.396Z,66.50
2022-12-28T18:28:16.068Z,29.17
2022-12-28T18:30:17.928Z,154.95
2022-12-28T18:32:19.600Z,608.28
2022-12-28T18:34:21.332Z,660.60
2022-12-28T18:36:23.055Z,513.08
2022-12-28T18:38:24.856Z,518.28
2022-12-28T18:40:26.547Z,73.13
2022-12-28T18:42:28.439Z,361.52
2022-12-28T18:44:30.210Z,244.65
2022-12-28T18:46:31.999Z,233.95
2022-12-28T18:48:39.353Z,339.33
2022-12-28T18:50:41.047Z,120.15
2022-12-28T18:52:42.740Z,195.07
2022-12-28T18:54:44.521Z,117.20
2022-12-28T18:56:46.325Z,140.90
2022-12-28T18:58:56.256Z,46.00
2022-12-28T19:01:04.006Z,84.60
2022-12-28T19:03:05.936Z,214.40
2022-12-28T19:05:08.029Z,160.35
2022-12-28T19:07:09.860Z,64.07
2022-12-28T19:09:12.009Z,159.15
2022-12-28T19:11:13.851Z,134.02
2022-12-28T19:13:15.706Z,217.05
2022-12-28T19:15:17.550Z,187.77
2022-12-28T19:17:19.330Z,49.17
2022-12-28T19:19:21.048Z,126.70
2022-12-28T19:21:33.236Z,366.60
2022-12-28T19:23:34.949Z,212.38
2022-12-28T19:25:36.644Z,206.32
2022-12-28T19:27:38.327Z,171.38
2022-12-28T19:29:40.178Z,189.60
2022-12-28T19:31:41.928Z,226.27
2022-12-28T19:33:43.817Z,170.15
2022-12-28T19:35:45.610Z,388.95
2022-12-28T19:37:47.282Z,256.90
2022-12-28T19:39:53.394Z,106.85
2022-12-28T19:41:57.957Z,154.32
2022-12-28T19:43:59.665Z,191.05
2022-12-28T19:46:22.942Z,291.50
2022-12-28T19:48:27.660Z,171.52
2022-12-28T19:50:29.440Z,254.75
2022-12-28T19:52:32.355Z,360.52
2022-12-28T19:54:34.092Z,168.52
2022-12-28T19:56:35.794Z,77.72
2022-12-28T19:58:37.678Z,58.78
2022-12-28T20:00:39.691Z,77.22
2022-12-28T20:02:41.586Z,156.15
2022-12-28T20:04:43.419Z,216.80
2022-12-28T20:06:45.628Z,176.18
2022-12-28T20:08:49.633Z,175.57
2022-12-28T20:10:57.324Z,179.00
2022-12-28T20:12:59.126Z,203.40
2022-12-28T20:15:00.825Z,326.02
2022-12-28T20:17:02.548Z,111.20
2022-12-28T20:19:04.763Z,133.18
2022-12-28T20:21:23.091Z,107.80
2022-12-28T20:23:24.783Z,198.43
2022-12-28T20:25:26.541Z,92.63
2022-12-28T20:27:28.252Z,79.72
2022-12-28T20:29:29.931Z,206.00
2022-12-28T20:31:31.898Z,162.52
2022-12-28T20:33:35.744Z,128.13
2022-12-28T20:35:37.431Z,136.30
2022-12-28T20:37:39.122Z,81.65
2022-12-28T20:39:40.860Z,87.35
2022-12-28T20:41:42.621Z,121.32
2022-12-28T20:43:44.288Z,47.35
2022-12-28T20:45:50.704Z,68.85
2022-12-28T20:47:55.712Z,49.85
2022-12-28T20:49:57.612Z,65.03
2022-12-28T20:51:59.299Z,50.70
2022-12-28T20:54:01.581Z,40.20
2022-12-28T20:56:08.030Z,44.42
2022-12-28T20:58:09.726Z,53.90
2022-12-28T21:00:12.065Z,137.20
2022-12-28T21:02:13.816Z,49.08
2022-12-28T21:04:15.635Z,50.17
2022-12-28T21:06:17.428Z,87.68
2022-12-28T21:08:19.454Z,26.05
2022-12-28T21:10:21.240Z,23.27
2022-12-28T21:12:22.965Z,32.22
2022-12-28T21:14:25.305Z,18.50
2022-12-28T21:16:27.056Z,14.90
2022-12-28T21:18:28.820Z,19.77
2022-12-28T21:20:35.442Z,18.45
2022-12-28T21:22:40.413Z,20.48
2022-12-28T21:24:42.360Z,15.32
2022-12-28T21:26:44.022Z,11.77
2022-12-28T21:28:46.323Z,15.90
2022-12-28T21:30:53.872Z,15.27
2022-12-28T21:32:55.763Z,13.65
2022-12-28T21:34:57.486Z,12.63
2022-12-28T21:36:59.154Z,17.15
2022-12-28T21:39:00.882Z,28.95
2022-12-28T21:41:06.805Z,22.58
2022-12-28T21:43:08.516Z,23.30
2022-12-28T21:45:10.787Z,19.15
2022-12-28T21:47:12.479Z,16.27
2022-12-28T21:49:14.309Z,17.42
2022-12-28T21:51:16.662Z,15.27
2022-12-28T21:53:18.383Z,16.42
2022-12-28T21:55:20.263Z,19.45
2022-12-28T21:57:22.252Z,16.90
2022-12-28T21:59:25.843Z,18.92
2022-12-28T22:01:37.720Z,14.27
2022-12-28T22:03:49.651Z,15.45
2022-12-28T22:05:51.322Z,15.05
2022-12-28T22:07:53.035Z,17.15
2022-12-28T22:09:54.759Z,16.40
2022-12-28T22:11:56.604Z,19.70
2022-12-28T22:13:58.701Z,18.48
2022-12-28T22:16:00.597Z,22.85
2022-12-28T22:18:08.783Z,39.15
2022-12-28T22:20:12.586Z,98.03
2022-12-28T22:22:14.306Z,30.90
2022-12-28T22:24:16.045Z,28.85
2022-12-28T22:26:17.739Z,39.83
2022-12-28T22:28:19.432Z,48.72
2022-12-28T22:30:21.425Z,23.73
2022-12-28T22:32:23.321Z,34.17
2022-12-28T22:34:25.130Z,54.30
2022-12-28T22:36:26.838Z,21.00
2022-12-28T22:38:28.542Z,25.08
2022-12-28T22:40:30.211Z,28.85
2022-12-28T22:42:32.368Z,24.67
2022-12-28T22:44:35.241Z,20.00
2022-12-28T22:46:37.062Z,31.42
2022-12-28T22:48:38.976Z,22.95
2022-12-28T22:50:43.323Z,22.25
2022-12-28T22:52:45.294Z,35.20
2022-12-28T22:54:47.066Z,21.75
2022-12-28T22:56:48.841Z,35.67
2022-12-28T22:58:50.681Z,18.75
2022-12-28T23:00:53.656Z,21.52
2022-12-28T23:02:55.410Z,18.38
2022-12-28T23:04:57.358Z,28.13
2022-12-28T23:07:03.506Z,18.55
2022-12-28T23:09:05.813Z,22.15
2022-12-28T23:11:10.602Z,16.70
2022-12-28T23:13:12.301Z,20.83
2022-12-28T23:15:13.984Z,19.08
2022-12-28T23:17:16.886Z,27.77
2022-12-28T23:19:18.995Z,19.15
2022-12-28T23:21:23.052Z,16.85
2022-12-28T23:23:24.775Z,18.83
2022-12-28T23:25:26.740Z,17.52
2022-12-28T23:27:47.568Z,22.48
2022-12-28T23:29:50.454Z,25.63
2022-12-28T23:31:52.152Z,19.33
2022-12-28T23:33:53.918Z,18.70
2022-12-28T23:35:55.626Z,19.38
2022-12-28T23:37:57.335Z,20.75
2022-12-28T23:39:59.175Z,14.85
2022-12-28T23:42:00.883Z,18.30
2022-12-28T23:44:02.971Z,15.52
2022-12-28T23:46:04.942Z,15.98
2022-12-28T23:48:06.707Z,16.25
2022-12-28T23:50:09.169Z,22.90
2022-12-28T23:52:11.266Z,19.45
2022-12-28T23:54:17.212Z,16.02
2022-12-28T23:56:19.030Z,22.58
2022-12-28T23:58:20.912Z,18.92
